sensor_id;sensor_type;location;lat;lon;timestamp;P1;durP1;ratioP1;P2;durP2;ratioP2
25341;SDS011;13298;48.792;9.154;2023-06-19T00:01:55;6.93;;;6.05;;
25341;SDS011;13298;48.792;9.154;2023-06-19T00:04:21;6.93;;;6.00;;
25341;SDS011;13298;48.792;9.154;2023-06-19T00:06:46;8.00;;;6.05;;
25341;SDS011;13298;48.792;9.154;2023-06-19T00:09:13;11.50;;;6.10;;
25341;SDS011;13298;48.792;9.154;2023-06-19T00:11:39;8.13;;;6.43;;
25341;SDS011;13298;48.792;9.154;2023-06-19T00:14:05;6.32;;;5.40;;
25341;SDS011;13298;48.792;9.154;2023-06-19T00:16:31;6.20;;;5.60;;
25341;SDS011;13298;48.792;9.154;2023-06-19T00:18:57;7.93;;;6.00;;
25341;SDS011;13298;48.792;9.154;2023-06-19T00:21:23;7.55;;;6.45;;
25341;SDS011;13298;48.792;9.154;2023-06-19T00:23:50;6.28;;;5.68;;
25341;SDS011;13298;48.792;9.154;2023-06-19T00:26:17;6.72;;;5.72;;
25341;SDS011;13298;48.792;9.154;2023-06-19T00:28:43;6.25;;;5.63;;
25341;SDS011;13298;48.792;9.154;2023-06-19T00:31:10;7.10;;;5.50;;
25341;SDS011;13298;48.792;9.154;2023-06-19T00:33:40;7.32;;;5.75;;
25341;SDS011;13298;48.792;9.154;2023-06-19T00:36:12;8.65;;;5.57;;
25341;SDS011;13298;48.792;9.154;2023-06-19T00:38:40;6.32;;;5.38;;
25341;SDS011;13298;48.792;9.154;2023-06-19T00:41:06;7.88;;;5.32;;
25341;SDS011;13298;48.792;9.154;2023-06-19T00:43:32;8.60;;;5.45;;
25341;SDS011;13298;48.792;9.154;2023-06-19T00:45:59;6.55;;;5.22;;
25341;SDS011;13298;48.792;9.154;2023-06-19T00:48:26;6.78;;;5.50;;
25341;SDS011;13298;48.792;9.154;2023-06-19T00:50:53;6.82;;;5.10;;
25341;SDS011;13298;48.792;9.154;2023-06-19T00:53:21;5.90;;;5.03;;
25341;SDS011;13298;48.792;9.154;2023-06-19T00:55:48;5.70;;;5.03;;
25341;SDS011;13298;48.792;9.154;2023-06-19T00:58:16;6.82;;;4.65;;
25341;SDS011;13298;48.792;9.154;2023-06-19T01:00:43;6.60;;;5.65;;
25341;SDS011;13298;48.792;9.154;2023-06-19T01:03:09;6.05;;;4.90;;
25341;SDS011;13298;48.792;9.154;2023-06-19T01:05:35;7.03;;;4.93;;
25341;SDS011;13298;48.792;9.154;2023-06-19T01:10:49;9.65;;;5.63;;
25341;SDS011;13298;48.792;9.154;2023-06-19T01:13:34;6.68;;;5.57;;
25341;SDS011;13298;48.792;9.154;2023-06-19T01:16:07;5.38;;;4.72;;
25341;SDS011;13298;48.792;9.154;2023-06-19T01:18:34;8.13;;;4.80;;
25341;SDS011;13298;48.792;9.154;2023-06-19T01:21:10;6.32;;;5.28;;
25341;SDS011;13298;48.792;9.154;2023-06-19T01:23:40;8.73;;;5.13;;
25341;SDS011;13298;48.792;9.154;2023-06-19T01:26:07;6.80;;;5.07;;
25341;SDS011;13298;48.792;9.154;2023-06-19T01:28:36;12.30;;;5.13;;
25341;SDS011;13298;48.792;9.154;2023-06-19T01:31:08;9.10;;;4.65;;
25341;SDS011;13298;48.792;9.154;2023-06-19T01:33:39;5.75;;;4.57;;
25341;SDS011;13298;48.792;9.154;2023-06-19T01:36:08;5.68;;;4.60;;
25341;SDS011;13298;48.792;9.154;2023-06-19T01:38:35;4.85;;;3.90;;
25341;SDS011;13298;48.792;9.154;2023-06-19T01:41:02;5.95;;;4.25;;
25341;SDS011;13298;48.792;9.154;2023-06-19T01:43:31;5.85;;;5.25;;
25341;SDS011;13298;48.792;9.154;2023-06-19T01:45:58;7.93;;;4.40;;
25341;SDS011;13298;48.792;9.154;2023-06-19T01:48:25;4.82;;;4.07;;
25341;SDS011;13298;48.792;9.154;2023-06-19T01:50:51;5.75;;;4.28;;
25341;SDS011;13298;48.792;9.154;2023-06-19T01:53:17;4.80;;;4.10;;
25341;SDS011;13298;48.792;9.154;2023-06-19T01:55:43;4.40;;;3.88;;
25341;SDS011;13298;48.792;9.154;2023-06-19T01:58:09;5.53;;;4.38;;
25341;SDS011;13298;48.792;9.154;2023-06-19T02:00:35;5.35;;;4.50;;
25341;SDS011;13298;48.792;9.154;2023-06-19T02:03:01;6.57;;;4.45;;
25341;SDS011;13298;48.792;9.154;2023-06-19T02:05:27;4.60;;;4.05;;
25341;SDS011;13298;48.792;9.154;2023-06-19T02:07:52;5.47;;;3.72;;
25341;SDS011;13298;48.792;9.154;2023-06-19T02:10:18;5.10;;;3.75;;
25341;SDS011;13298;48.792;9.154;2023-06-19T02:12:44;5.72;;;3.92;;
25341;SDS011;13298;48.792;9.154;2023-06-19T02:15:09;4.43;;;3.95;;
25341;SDS011;13298;48.792;9.154;2023-06-19T02:17:35;5.10;;;3.95;;
25341;SDS011;13298;48.792;9.154;2023-06-19T02:20:01;5.55;;;3.78;;
25341;SDS011;13298;48.792;9.154;2023-06-19T02:22:27;4.63;;;3.42;;
25341;SDS011;13298;48.792;9.154;2023-06-19T02:24:53;4.65;;;3.90;;
25341;SDS011;13298;48.792;9.154;2023-06-19T02:27:18;4.20;;;3.30;;
25341;SDS011;13298;48.792;9.154;2023-06-19T02:29:44;6.18;;;3.70;;
25341;SDS011;13298;48.792;9.154;2023-06-19T02:32:10;4.70;;;3.75;;
25341;SDS011;13298;48.792;9.154;2023-06-19T02:34:36;4.13;;;3.70;;
25341;SDS011;13298;48.792;9.154;2023-06-19T02:37:01;4.68;;;3.85;;
25341;SDS011;13298;48.792;9.154;2023-06-19T02:39:27;4.20;;;3.40;;
25341;SDS011;13298;48.792;9.154;2023-06-19T02:41:54;4.18;;;3.47;;
25341;SDS011;13298;48.792;9.154;2023-06-19T02:44:20;5.05;;;3.47;;
25341;SDS011;13298;48.792;9.154;2023-06-19T02:46:45;3.95;;;3.17;;
25341;SDS011;13298;48.792;9.154;2023-06-19T02:49:11;4.03;;;3.63;;
25341;SDS011;13298;48.792;9.154;2023-06-19T02:51:37;4.22;;;3.78;;
25341;SDS011;13298;48.792;9.154;2023-06-19T02:54:02;6.72;;;3.47;;
25341;SDS011;13298;48.792;9.154;2023-06-19T02:56:28;4.20;;;3.30;;
25341;SDS011;13298;48.792;9.154;2023-06-19T02:58:54;5.97;;;3.60;;
25341;SDS011;13298;48.792;9.154;2023-06-19T03:01:19;4.38;;;3.78;;
25341;SDS011;13298;48.792;9.154;2023-06-19T03:03:45;3.33;;;3.03;;
25341;SDS011;13298;48.792;9.154;2023-06-19T03:06:11;3.75;;;2.90;;
25341;SDS011;13298;48.792;9.154;2023-06-19T03:08:38;4.15;;;3.22;;
25341;SDS011;13298;48.792;9.154;2023-06-19T03:11:04;4.28;;;3.22;;
25341;SDS011;13298;48.792;9.154;2023-06-19T03:16:19;3.53;;;3.22;;
25341;SDS011;13298;48.792;9.154;2023-06-19T03:18:46;3.50;;;3.20;;
25341;SDS011;13298;48.792;9.154;2023-06-19T03:21:15;3.45;;;3.15;;
25341;SDS011;13298;48.792;9.154;2023-06-19T03:23:41;3.72;;;3.22;;
25341;SDS011;13298;48.792;9.154;2023-06-19T03:26:07;3.83;;;3.42;;
25341;SDS011;13298;48.792;9.154;2023-06-19T03:28:34;3.40;;;3.10;;
25341;SDS011;13298;48.792;9.154;2023-06-19T03:30:59;3.40;;;2.92;;
25341;SDS011;13298;48.792;9.154;2023-06-19T03:33:25;3.83;;;3.17;;
25341;SDS011;13298;48.792;9.154;2023-06-19T03:35:51;3.95;;;2.78;;
25341;SDS011;13298;48.792;9.154;2023-06-19T03:38:17;3.60;;;3.08;;
25341;SDS011;13298;48.792;9.154;2023-06-19T03:40:42;2.80;;;2.55;;
25341;SDS011;13298;48.792;9.154;2023-06-19T03:43:08;3.17;;;2.60;;
25341;SDS011;13298;48.792;9.154;2023-06-19T03:45:34;3.00;;;2.70;;
25341;SDS011;13298;48.792;9.154;2023-06-19T03:47:59;3.80;;;2.92;;
25341;SDS011;13298;48.792;9.154;2023-06-19T03:50:25;3.92;;;2.90;;
25341;SDS011;13298;48.792;9.154;2023-06-19T03:52:51;3.60;;;2.88;;
25341;SDS011;13298;48.792;9.154;2023-06-19T03:55:17;4.00;;;3.08;;
25341;SDS011;13298;48.792;9.154;2023-06-19T03:57:43;3.25;;;2.38;;
25341;SDS011;13298;48.792;9.154;2023-06-19T04:00:08;5.43;;;2.17;;
25341;SDS011;13298;48.792;9.154;2023-06-19T04:02:36;6.15;;;2.67;;
25341;SDS011;13298;48.792;9.154;2023-06-19T04:05:02;2.92;;;2.42;;
25341;SDS011;13298;48.792;9.154;2023-06-19T04:07:28;4.13;;;2.70;;
25341;SDS011;13298;48.792;9.154;2023-06-19T04:09:54;3.08;;;2.42;;
25341;SDS011;13298;48.792;9.154;2023-06-19T04:12:20;3.22;;;2.92;;
25341;SDS011;13298;48.792;9.154;2023-06-19T04:14:46;2.85;;;2.13;;
25341;SDS011;13298;48.792;9.154;2023-06-19T04:17:11;3.33;;;2.50;;
25341;SDS011;13298;48.792;9.154;2023-06-19T04:19:38;3.05;;;2.50;;
25341;SDS011;13298;48.792;9.154;2023-06-19T04:22:04;3.08;;;2.40;;
25341;SDS011;13298;48.792;9.154;2023-06-19T04:24:30;2.95;;;2.50;;
25341;SDS011;13298;48.792;9.154;2023-06-19T04:26:56;2.85;;;2.45;;
25341;SDS011;13298;48.792;9.154;2023-06-19T04:29:21;4.47;;;2.78;;
25341;SDS011;13298;48.792;9.154;2023-06-19T04:31:47;3.67;;;2.55;;
25341;SDS011;13298;48.792;9.154;2023-06-19T04:34:15;4.07;;;2.45;;
25341;SDS011;13298;48.792;9.154;2023-06-19T04:36:42;2.95;;;2.50;;
25341;SDS011;13298;48.792;9.154;2023-06-19T04:39:08;5.07;;;2.45;;
25341;SDS011;13298;48.792;9.154;2023-06-19T04:41:34;3.25;;;2.38;;
25341;SDS011;13298;48.792;9.154;2023-06-19T04:44:03;2.72;;;2.35;;
25341;SDS011;13298;48.792;9.154;2023-06-19T04:46:30;4.28;;;2.75;;
25341;SDS011;13298;48.792;9.154;2023-06-19T04:48:56;2.95;;;2.40;;
25341;SDS011;13298;48.792;9.154;2023-06-19T04:51:21;2.80;;;2.33;;
25341;SDS011;13298;48.792;9.154;2023-06-19T04:53:47;3.25;;;2.63;;
25341;SDS011;13298;48.792;9.154;2023-06-19T04:56:16;2.85;;;2.40;;
25341;SDS011;13298;48.792;9.154;2023-06-19T04:58:42;3.50;;;2.53;;
25341;SDS011;13298;48.792;9.154;2023-06-19T05:01:14;3.20;;;2.35;;
25341;SDS011;13298;48.792;9.154;2023-06-19T05:03:41;2.70;;;2.22;;
25341;SDS011;13298;48.792;9.154;2023-06-19T05:06:10;3.33;;;2.67;;
25341;SDS011;13298;48.792;9.154;2023-06-19T05:08:37;4.13;;;2.53;;
25341;SDS011;13298;48.792;9.154;2023-06-19T05:11:03;3.17;;;2.40;;
25341;SDS011;13298;48.792;9.154;2023-06-19T05:13:29;2.85;;;2.40;;
25341;SDS011;13298;48.792;9.154;2023-06-19T05:15:55;3.28;;;2.47;;
25341;SDS011;13298;48.792;9.154;2023-06-19T05:18:23;3.65;;;2.83;;
25341;SDS011;13298;48.792;9.154;2023-06-19T05:20:49;2.78;;;2.28;;
25341;SDS011;13298;48.792;9.154;2023-06-19T05:23:14;3.67;;;2.72;;
25341;SDS011;13298;48.792;9.154;2023-06-19T05:25:40;2.97;;;2.53;;
25341;SDS011;13298;48.792;9.154;2023-06-19T05:33:41;3.15;;;2.45;;
25341;SDS011;13298;48.792;9.154;2023-06-19T05:36:07;3.70;;;2.97;;
25341;SDS011;13298;48.792;9.154;2023-06-19T05:38:32;3.40;;;2.25;;
25341;SDS011;13298;48.792;9.154;2023-06-19T05:40:58;2.65;;;2.38;;
25341;SDS011;13298;48.792;9.154;2023-06-19T05:43:24;3.55;;;2.53;;
25341;SDS011;13298;48.792;9.154;2023-06-19T05:45:51;3.40;;;2.40;;
25341;SDS011;13298;48.792;9.154;2023-06-19T05:48:19;3.13;;;2.47;;
25341;SDS011;13298;48.792;9.154;2023-06-19T05:50:44;3.88;;;2.60;;
25341;SDS011;13298;48.792;9.154;2023-06-19T05:53:10;4.18;;;2.80;;
25341;SDS011;13298;48.792;9.154;2023-06-19T05:55:36;3.20;;;2.70;;
25341;SDS011;13298;48.792;9.154;2023-06-19T05:58:02;3.65;;;2.47;;
25341;SDS011;13298;48.792;9.154;2023-06-19T06:00:29;4.78;;;2.40;;
25341;SDS011;13298;48.792;9.154;2023-06-19T06:02:58;3.30;;;2.30;;
25341;SDS011;13298;48.792;9.154;2023-06-19T06:05:27;3.00;;;2.33;;
25341;SDS011;13298;48.792;9.154;2023-06-19T06:07:53;2.75;;;2.50;;
25341;SDS011;13298;48.792;9.154;2023-06-19T06:10:20;3.10;;;2.78;;
25341;SDS011;13298;48.792;9.154;2023-06-19T06:12:47;3.00;;;2.70;;
25341;SDS011;13298;48.792;9.154;2023-06-19T06:15:13;2.60;;;2.40;;
25341;SDS011;13298;48.792;9.154;2023-06-19T06:17:39;2.33;;;2.10;;
25341;SDS011;13298;48.792;9.154;2023-06-19T06:20:05;3.47;;;2.78;;
25341;SDS011;13298;48.792;9.154;2023-06-19T06:25:04;3.38;;;2.53;;
25341;SDS011;13298;48.792;9.154;2023-06-19T06:27:31;2.88;;;2.35;;
25341;SDS011;13298;48.792;9.154;2023-06-19T06:29:57;4.03;;;2.78;;
25341;SDS011;13298;48.792;9.154;2023-06-19T06:32:22;2.70;;;2.50;;
25341;SDS011;13298;48.792;9.154;2023-06-19T06:34:48;2.40;;;2.20;;
25341;SDS011;13298;48.792;9.154;2023-06-19T06:37:14;3.10;;;2.22;;
25341;SDS011;13298;48.792;9.154;2023-06-19T06:39:41;4.55;;;2.70;;
25341;SDS011;13298;48.792;9.154;2023-06-19T06:42:07;3.78;;;2.85;;
25341;SDS011;13298;48.792;9.154;2023-06-19T06:44:32;4.63;;;2.47;;
25341;SDS011;13298;48.792;9.154;2023-06-19T06:46:58;3.42;;;2.47;;
25341;SDS011;13298;48.792;9.154;2023-06-19T06:49:24;3.15;;;2.17;;
25341;SDS011;13298;48.792;9.154;2023-06-19T06:51:49;3.25;;;2.33;;
25341;SDS011;13298;48.792;9.154;2023-06-19T06:54:15;2.95;;;2.10;;
25341;SDS011;13298;48.792;9.154;2023-06-19T06:56:41;4.32;;;2.20;;
25341;SDS011;13298;48.792;9.154;2023-06-19T06:59:07;2.47;;;1.90;;
25341;SDS011;13298;48.792;9.154;2023-06-19T07:01:32;2.75;;;2.38;;
25341;SDS011;13298;48.792;9.154;2023-06-19T07:03:58;4.45;;;2.55;;
25341;SDS011;13298;48.792;9.154;2023-06-19T07:06:24;3.42;;;2.20;;
25341;SDS011;13298;48.792;9.154;2023-06-19T07:08:49;2.47;;;2.10;;
25341;SDS011;13298;48.792;9.154;2023-06-19T07:11:15;2.45;;;2.25;;
25341;SDS011;13298;48.792;9.154;2023-06-19T07:13:41;3.83;;;2.13;;
25341;SDS011;13298;48.792;9.154;2023-06-19T07:16:07;5.10;;;2.13;;
25341;SDS011;13298;48.792;9.154;2023-06-19T07:18:32;2.85;;;2.20;;
25341;SDS011;13298;48.792;9.154;2023-06-19T07:21:00;2.40;;;2.20;;
25341;SDS011;13298;48.792;9.154;2023-06-19T07:23:27;5.60;;;2.45;;
25341;SDS011;13298;48.792;9.154;2023-06-19T07:25:53;4.45;;;1.88;;
25341;SDS011;13298;48.792;9.154;2023-06-19T07:28:18;3.55;;;2.20;;
25341;SDS011;13298;48.792;9.154;2023-06-19T07:30:44;3.85;;;2.20;;
25341;SDS011;13298;48.792;9.154;2023-06-19T07:33:12;4.88;;;2.20;;
25341;SDS011;13298;48.792;9.154;2023-06-19T07:35:38;2.85;;;2.05;;
25341;SDS011;13298;48.792;9.154;2023-06-19T07:38:03;6.57;;;2.20;;
25341;SDS011;13298;48.792;9.154;2023-06-19T07:40:29;4.18;;;2.30;;
25341;SDS011;13298;48.792;9.154;2023-06-19T07:42:55;2.20;;;1.90;;
25341;SDS011;13298;48.792;9.154;2023-06-19T07:45:20;2.08;;;1.92;;
25341;SDS011;13298;48.792;9.154;2023-06-19T07:47:54;2.10;;;1.90;;
25341;SDS011;13298;48.792;9.154;2023-06-19T07:50:21;3.10;;;1.90;;
25341;SDS011;13298;48.792;9.154;2023-06-19T07:52:47;2.75;;;1.80;;
25341;SDS011;13298;48.792;9.154;2023-06-19T07:55:12;2.30;;;2.10;;
25341;SDS011;13298;48.792;9.154;2023-06-19T07:57:38;2.30;;;2.10;;
25341;SDS011;13298;48.792;9.154;2023-06-19T08:00:04;3.55;;;2.15;;
25341;SDS011;13298;48.792;9.154;2023-06-19T08:02:36;3.80;;;2.03;;
25341;SDS011;13298;48.792;9.154;2023-06-19T08:05:02;2.75;;;1.90;;
25341;SDS011;13298;48.792;9.154;2023-06-19T08:07:28;2.92;;;2.40;;
25341;SDS011;13298;48.792;9.154;2023-06-19T08:09:53;2.95;;;2.03;;
25341;SDS011;13298;48.792;9.154;2023-06-19T08:12:19;2.58;;;2.05;;
25341;SDS011;13298;48.792;9.154;2023-06-19T08:14:45;2.75;;;2.22;;
25341;SDS011;13298;48.792;9.154;2023-06-19T08:17:10;2.42;;;2.03;;
25341;SDS011;13298;48.792;9.154;2023-06-19T08:19:36;2.50;;;2.30;;
25341;SDS011;13298;48.792;9.154;2023-06-19T08:22:04;2.88;;;2.20;;
25341;SDS011;13298;48.792;9.154;2023-06-19T08:24:30;2.55;;;2.20;;
25341;SDS011;13298;48.792;9.154;2023-06-19T08:26:56;2.65;;;1.95;;
25341;SDS011;13298;48.792;9.154;2023-06-19T08:29:22;2.80;;;2.38;;
25341;SDS011;13298;48.792;9.154;2023-06-19T08:31:48;2.90;;;2.40;;
25341;SDS011;13298;48.792;9.154;2023-06-19T08:34:14;2.33;;;2.10;;
25341;SDS011;13298;48.792;9.154;2023-06-19T08:36:39;4.07;;;2.22;;
25341;SDS011;13298;48.792;9.154;2023-06-19T08:39:05;4.20;;;2.50;;
25341;SDS011;13298;48.792;9.154;2023-06-19T08:41:33;2.78;;;2.58;;
25341;SDS011;13298;48.792;9.154;2023-06-19T08:44:01;4.80;;;2.13;;
25341;SDS011;13298;48.792;9.154;2023-06-19T08:46:28;2.80;;;2.22;;
25341;SDS011;13298;48.792;9.154;2023-06-19T08:48:54;2.80;;;2.30;;
25341;SDS011;13298;48.792;9.154;2023-06-19T08:51:21;2.92;;;2.60;;
25341;SDS011;13298;48.792;9.154;2023-06-19T08:53:47;2.70;;;2.45;;
25341;SDS011;13298;48.792;9.154;2023-06-19T08:56:19;2.78;;;2.35;;
25341;SDS011;13298;48.792;9.154;2023-06-19T08:58:44;3.17;;;2.40;;
25341;SDS011;13298;48.792;9.154;2023-06-19T09:01:10;2.80;;;2.28;;
25341;SDS011;13298;48.792;9.154;2023-06-19T09:03:36;2.30;;;2.10;;
25341;SDS011;13298;48.792;9.154;2023-06-19T09:06:08;3.25;;;2.30;;
25341;SDS011;13298;48.792;9.154;2023-06-19T09:08:34;4.13;;;2.60;;
25341;SDS011;13298;48.792;9.154;2023-06-19T09:11:03;3.05;;;2.47;;
25341;SDS011;13298;48.792;9.154;2023-06-19T09:13:30;3.85;;;2.35;;
25341;SDS011;13298;48.792;9.154;2023-06-19T09:16:00;2.38;;;2.17;;
25341;SDS011;13298;48.792;9.154;2023-06-19T09:18:41;6.85;;;2.88;;
25341;SDS011;13298;48.792;9.154;2023-06-19T09:21:14;3.15;;;2.63;;
25341;SDS011;13298;48.792;9.154;2023-06-19T09:23:45;2.92;;;2.10;;
25341;SDS011;13298;48.792;9.154;2023-06-19T09:26:13;3.42;;;2.30;;
25341;SDS011;13298;48.792;9.154;2023-06-19T09:28:41;3.58;;;2.75;;
25341;SDS011;13298;48.792;9.154;2023-06-19T09:31:10;3.05;;;2.47;;
25341;SDS011;13298;48.792;9.154;2023-06-19T09:33:36;3.25;;;2.40;;
25341;SDS011;13298;48.792;9.154;2023-06-19T09:36:04;2.83;;;2.30;;
25341;SDS011;13298;48.792;9.154;2023-06-19T09:38:34;4.53;;;2.70;;
25341;SDS011;13298;48.792;9.154;2023-06-19T09:41:03;2.85;;;2.60;;
25341;SDS011;13298;48.792;9.154;2023-06-19T09:43:33;3.05;;;2.75;;
25341;SDS011;13298;48.792;9.154;2023-06-19T09:46:02;3.40;;;2.58;;
25341;SDS011;13298;48.792;9.154;2023-06-19T09:48:30;6.65;;;2.80;;
25341;SDS011;13298;48.792;9.154;2023-06-19T09:50:59;3.40;;;2.85;;
25341;SDS011;13298;48.792;9.154;2023-06-19T09:53:45;3.28;;;2.97;;
25341;SDS011;13298;48.792;9.154;2023-06-19T09:56:14;3.95;;;2.50;;
25341;SDS011;13298;48.792;9.154;2023-06-19T09:58:44;2.70;;;2.50;;
25341;SDS011;13298;48.792;9.154;2023-06-19T10:01:11;3.60;;;2.15;;
25341;SDS011;13298;48.792;9.154;2023-06-19T10:03:38;5.00;;;2.95;;
25341;SDS011;13298;48.792;9.154;2023-06-19T10:06:05;5.28;;;3.20;;
25341;SDS011;13298;48.792;9.154;2023-06-19T10:08:32;3.60;;;2.63;;
25341;SDS011;13298;48.792;9.154;2023-06-19T10:11:05;3.42;;;2.72;;
25341;SDS011;13298;48.792;9.154;2023-06-19T10:13:32;3.63;;;2.58;;
25341;SDS011;13298;48.792;9.154;2023-06-19T10:16:06;3.25;;;2.95;;
25341;SDS011;13298;48.792;9.154;2023-06-19T10:18:43;3.25;;;2.78;;
25341;SDS011;13298;48.792;9.154;2023-06-19T10:21:42;2.90;;;2.60;;
25341;SDS011;13298;48.792;9.154;2023-06-19T10:24:13;3.65;;;3.30;;
25341;SDS011;13298;48.792;9.154;2023-06-19T10:26:54;3.92;;;2.67;;
25341;SDS011;13298;48.792;9.154;2023-06-19T10:29:25;5.47;;;3.20;;
25341;SDS011;13298;48.792;9.154;2023-06-19T10:31:53;3.70;;;3.15;;
25341;SDS011;13298;48.792;9.154;2023-06-19T10:34:19;3.15;;;2.85;;
25341;SDS011;13298;48.792;9.154;2023-06-19T10:36:44;3.80;;;2.70;;
25341;SDS011;13298;48.792;9.154;2023-06-19T10:39:10;5.07;;;3.10;;
25341;SDS011;13298;48.792;9.154;2023-06-19T10:41:39;3.55;;;2.97;;
25341;SDS011;13298;48.792;9.154;2023-06-19T10:44:06;3.38;;;2.92;;
25341;SDS011;13298;48.792;9.154;2023-06-19T10:46:37;3.72;;;3.10;;
25341;SDS011;13298;48.792;9.154;2023-06-19T10:49:04;4.20;;;3.15;;
25341;SDS011;13298;48.792;9.154;2023-06-19T10:51:38;3.15;;;2.85;;
25341;SDS011;13298;48.792;9.154;2023-06-19T10:54:07;3.28;;;2.97;;
25341;SDS011;13298;48.792;9.154;2023-06-19T10:56:33;4.93;;;3.15;;
25341;SDS011;13298;48.792;9.154;2023-06-19T10:59:03;7.07;;;3.05;;
25341;SDS011;13298;48.792;9.154;2023-06-19T11:01:35;5.80;;;3.10;;
25341;SDS011;13298;48.792;9.154;2023-06-19T11:04:04;5.03;;;3.50;;
25341;SDS011;13298;48.792;9.154;2023-06-19T11:06:32;3.88;;;3.30;;
25341;SDS011;13298;48.792;9.154;2023-06-19T11:08:59;4.60;;;3.33;;
25341;SDS011;13298;48.792;9.154;2023-06-19T11:11:38;4.18;;;3.13;;
25341;SDS011;13298;48.792;9.154;2023-06-19T11:14:09;3.15;;;2.85;;
25341;SDS011;13298;48.792;9.154;2023-06-19T11:16:37;4.35;;;3.35;;
25341;SDS011;13298;48.792;9.154;2023-06-19T11:19:07;3.47;;;3.15;;
25341;SDS011;13298;48.792;9.154;2023-06-19T11:21:34;3.38;;;3.08;;
25341;SDS011;13298;48.792;9.154;2023-06-19T11:24:10;4.25;;;3.83;;
25341;SDS011;13298;48.792;9.154;2023-06-19T11:26:38;4.70;;;3.33;;
25341;SDS011;13298;48.792;9.154;2023-06-19T11:29:15;4.47;;;3.10;;
25341;SDS011;13298;48.792;9.154;2023-06-19T11:31:51;6.32;;;3.50;;
25341;SDS011;13298;48.792;9.154;2023-06-19T11:34:31;4.07;;;3.35;;
25341;SDS011;13298;48.792;9.154;2023-06-19T11:36:58;3.33;;;3.00;;
25341;SDS011;13298;48.792;9.154;2023-06-19T11:39:24;4.07;;;3.53;;
25341;SDS011;13298;48.792;9.154;2023-06-19T11:41:50;4.88;;;3.50;;
25341;SDS011;13298;48.792;9.154;2023-06-19T11:44:16;4.25;;;3.13;;
25341;SDS011;13298;48.792;9.154;2023-06-19T11:46:42;3.60;;;3.30;;
25341;SDS011;13298;48.792;9.154;2023-06-19T11:49:09;3.80;;;3.40;;
25341;SDS011;13298;48.792;9.154;2023-06-19T11:51:44;6.13;;;3.33;;
25341;SDS011;13298;48.792;9.154;2023-06-19T11:54:11;3.88;;;3.55;;
25341;SDS011;13298;48.792;9.154;2023-06-19T11:56:45;3.20;;;2.90;;
25341;SDS011;13298;48.792;9.154;2023-06-19T11:59:14;4.38;;;3.90;;
25341;SDS011;13298;48.792;9.154;2023-06-19T12:01:40;4.70;;;3.22;;
25341;SDS011;13298;48.792;9.154;2023-06-19T12:04:06;3.47;;;3.17;;
25341;SDS011;13298;48.792;9.154;2023-06-19T12:06:32;3.83;;;3.20;;
25341;SDS011;13298;48.792;9.154;2023-06-19T12:08:57;4.32;;;3.45;;
25341;SDS011;13298;48.792;9.154;2023-06-19T12:11:24;3.55;;;2.88;;
25341;SDS011;13298;48.792;9.154;2023-06-19T12:13:50;5.15;;;2.92;;
25341;SDS011;13298;48.792;9.154;2023-06-19T12:16:15;4.25;;;3.28;;
25341;SDS011;13298;48.792;9.154;2023-06-19T12:18:41;3.70;;;3.10;;
25341;SDS011;13298;48.792;9.154;2023-06-19T12:21:07;4.32;;;3.45;;
25341;SDS011;13298;48.792;9.154;2023-06-19T12:23:33;3.72;;;3.22;;
25341;SDS011;13298;48.792;9.154;2023-06-19T12:25:59;3.92;;;3.47;;
25341;SDS011;13298;48.792;9.154;2023-06-19T12:28:25;4.05;;;3.50;;
25341;SDS011;13298;48.792;9.154;2023-06-19T12:30:51;4.13;;;3.33;;
25341;SDS011;13298;48.792;9.154;2023-06-19T12:33:18;3.70;;;3.40;;
25341;SDS011;13298;48.792;9.154;2023-06-19T12:35:45;4.35;;;3.20;;
25341;SDS011;13298;48.792;9.154;2023-06-19T12:38:11;5.30;;;3.30;;
25341;SDS011;13298;48.792;9.154;2023-06-19T12:40:37;3.33;;;3.03;;
25341;SDS011;13298;48.792;9.154;2023-06-19T12:43:03;7.65;;;3.35;;
25341;SDS011;13298;48.792;9.154;2023-06-19T12:45:29;4.72;;;3.35;;
25341;SDS011;13298;48.792;9.154;2023-06-19T12:47:55;3.45;;;3.15;;
25341;SDS011;13298;48.792;9.154;2023-06-19T12:50:20;3.92;;;3.53;;
25341;SDS011;13298;48.792;9.154;2023-06-19T12:52:47;4.57;;;3.58;;
25341;SDS011;13298;48.792;9.154;2023-06-19T12:55:13;9.65;;;3.72;;
25341;SDS011;13298;48.792;9.154;2023-06-19T12:57:39;4.68;;;3.40;;
25341;SDS011;13298;48.792;9.154;2023-06-19T13:00:05;6.82;;;3.83;;
25341;SDS011;13298;48.792;9.154;2023-06-19T13:05:08;5.38;;;3.63;;
25341;SDS011;13298;48.792;9.154;2023-06-19T13:07:35;3.70;;;3.30;;
25341;SDS011;13298;48.792;9.154;2023-06-19T13:10:01;4.05;;;3.15;;
25341;SDS011;13298;48.792;9.154;2023-06-19T13:12:26;5.10;;;3.53;;
25341;SDS011;13298;48.792;9.154;2023-06-19T13:14:52;4.25;;;3.75;;
25341;SDS011;13298;48.792;9.154;2023-06-19T13:17:18;4.30;;;3.90;;
25341;SDS011;13298;48.792;9.154;2023-06-19T13:19:44;3.50;;;3.20;;
25341;SDS011;13298;48.792;9.154;2023-06-19T13:22:10;4.07;;;3.47;;
25341;SDS011;13298;48.792;9.154;2023-06-19T13:24:35;3.83;;;3.40;;
25341;SDS011;13298;48.792;9.154;2023-06-19T13:27:01;4.32;;;3.33;;
25341;SDS011;13298;48.792;9.154;2023-06-19T13:29:27;4.00;;;3.60;;
25341;SDS011;13298;48.792;9.154;2023-06-19T13:31:53;7.63;;;3.60;;
25341;SDS011;13298;48.792;9.154;2023-06-19T13:34:19;4.00;;;3.47;;
25341;SDS011;13298;48.792;9.154;2023-06-19T13:36:46;4.68;;;3.63;;
25341;SDS011;13298;48.792;9.154;2023-06-19T13:39:12;3.80;;;3.33;;
25341;SDS011;13298;48.792;9.154;2023-06-19T13:41:38;4.57;;;3.40;;
25341;SDS011;13298;48.792;9.154;2023-06-19T13:44:04;5.32;;;3.75;;
25341;SDS011;13298;48.792;9.154;2023-06-19T13:46:30;4.60;;;3.33;;
25341;SDS011;13298;48.792;9.154;2023-06-19T13:48:57;3.83;;;3.42;;
25341;SDS011;13298;48.792;9.154;2023-06-19T13:51:23;5.63;;;3.50;;
25341;SDS011;13298;48.792;9.154;2023-06-19T13:53:50;4.25;;;3.33;;
25341;SDS011;13298;48.792;9.154;2023-06-19T13:56:17;4.65;;;3.28;;
25341;SDS011;13298;48.792;9.154;2023-06-19T13:58:42;4.80;;;3.33;;
25341;SDS011;13298;48.792;9.154;2023-06-19T14:01:08;4.30;;;3.33;;
25341;SDS011;13298;48.792;9.154;2023-06-19T14:03:36;4.45;;;3.17;;
25341;SDS011;13298;48.792;9.154;2023-06-19T14:06:04;4.07;;;3.13;;
25341;SDS011;13298;48.792;9.154;2023-06-19T14:08:30;4.72;;;3.25;;
25341;SDS011;13298;48.792;9.154;2023-06-19T14:10:56;3.22;;;2.92;;
25341;SDS011;13298;48.792;9.154;2023-06-19T14:13:22;4.00;;;3.40;;
25341;SDS011;13298;48.792;9.154;2023-06-19T14:15:48;3.75;;;3.17;;
25341;SDS011;13298;48.792;9.154;2023-06-19T14:18:13;3.40;;;3.10;;
25341;SDS011;13298;48.792;9.154;2023-06-19T14:20:39;3.67;;;3.22;;
25341;SDS011;13298;48.792;9.154;2023-06-19T14:23:06;3.83;;;3.10;;
25341;SDS011;13298;48.792;9.154;2023-06-19T14:25:33;3.60;;;3.30;;
25341;SDS011;13298;48.792;9.154;2023-06-19T14:27:59;3.80;;;3.20;;
25341;SDS011;13298;48.792;9.154;2023-06-19T14:30:25;3.90;;;3.50;;
25341;SDS011;13298;48.792;9.154;2023-06-19T14:32:50;3.58;;;3.25;;
25341;SDS011;13298;48.792;9.154;2023-06-19T14:35:16;6.10;;;3.70;;
25341;SDS011;13298;48.792;9.154;2023-06-19T14:37:42;4.57;;;3.50;;
25341;SDS011;13298;48.792;9.154;2023-06-19T14:40:08;4.13;;;3.25;;
25341;SDS011;13298;48.792;9.154;2023-06-19T14:42:34;3.50;;;3.20;;
25341;SDS011;13298;48.792;9.154;2023-06-19T14:45:00;4.00;;;3.42;;
25341;SDS011;13298;48.792;9.154;2023-06-19T14:47:26;3.78;;;3.10;;
25341;SDS011;13298;48.792;9.154;2023-06-19T14:49:51;4.40;;;3.42;;
25341;SDS011;13298;48.792;9.154;2023-06-19T14:52:18;3.97;;;3.45;;
25341;SDS011;13298;48.792;9.154;2023-06-19T14:54:45;3.45;;;3.15;;
25341;SDS011;13298;48.792;9.154;2023-06-19T14:57:11;3.50;;;3.20;;
25341;SDS011;13298;48.792;9.154;2023-06-19T14:59:37;4.28;;;3.30;;
25341;SDS011;13298;48.792;9.154;2023-06-19T15:02:03;4.38;;;3.28;;
25341;SDS011;13298;48.792;9.154;2023-06-19T15:04:31;4.70;;;3.13;;